Cleveland, Ohio
Current Conditions -  °F | °C
As of 7:53 PM on Tuesday 25 Nov 2014 (Local Time) from KBKL Reporting Station
Overcast Overcast  
Wind Chill: 24°   Ceiling: 2400
Heat Index: 33°   Visibility: 10mi
Dew Point: 24°   Wind: 12mph
Humidity: 70%   Direction: 210°SSW
Pressure: 30.19"   Gusts: 23mph
Location:  41.5°N, 81.69°W
Report Text: KBKL 260053Z 21010G20KT 10SM OVC024 01/M04 A3019 RMK AO2 SLP230 T00061044
Loading
Personal Weather Stations






























Interactive Weather Map New forecast layout! Learn more

10-Day Weather Forecast

Advertisements
Track Severe Weather on mobile